sensor_id;sensor_type;location;lat;lon;timestamp;pressure;altitude;pressure_sealevel;temperature;humidity
77739;BME280;66904;59.926;30.404;2023-04-24T00:02:44;100714.53;;;26.80;30.39
77739;BME280;66904;59.926;30.404;2023-04-24T00:07:47;100718.94;;;26.81;30.78
77739;BME280;66904;59.926;30.404;2023-04-24T00:12:47;100708.69;;;26.77;30.46
77739;BME280;66904;59.926;30.404;2023-04-24T00:17:48;100695.63;;;26.67;30.73
77739;BME280;66904;59.926;30.404;2023-04-24T00:22:49;100702.88;;;26.73;31.15
77739;BME280;66904;59.926;30.404;2023-04-24T00:27:49;100711.22;;;26.71;30.41
77739;BME280;66904;59.926;30.404;2023-04-24T00:32:50;100687.47;;;26.67;30.21
77739;BME280;66904;59.926;30.404;2023-04-24T00:37:51;100683.13;;;26.59;30.63
77739;BME280;66904;59.926;30.404;2023-04-24T00:42:51;100700.66;;;26.63;30.60
77739;BME280;66904;59.926;30.404;2023-04-24T00:47:52;100687.13;;;26.57;30.38
77739;BME280;66904;59.926;30.404;2023-04-24T00:52:53;100688.34;;;26.61;30.81
77739;BME280;66904;59.926;30.404;2023-04-24T00:57:54;100682.94;;;26.61;30.80
77739;BME280;66904;59.926;30.404;2023-04-24T01:02:55;100676.28;;;26.57;30.75
77739;BME280;66904;59.926;30.404;2023-04-24T01:07:56;100686.44;;;26.61;30.33
77739;BME280;66904;59.926;30.404;2023-04-24T01:12:57;100683.75;;;26.61;30.38
77739;BME280;66904;59.926;30.404;2023-04-24T01:17:58;100679.81;;;26.57;30.18
77739;BME280;66904;59.926;30.404;2023-04-24T01:22:59;100684.81;;;26.60;30.57
77739;BME280;66904;59.926;30.404;2023-04-24T01:28:00;100676.66;;;26.60;30.86
77739;BME280;66904;59.926;30.404;2023-04-24T01:33:01;100674.41;;;26.57;30.88
77739;BME280;66904;59.926;30.404;2023-04-24T01:38:03;100670.59;;;26.58;30.78
77739;BME280;66904;59.926;30.404;2023-04-24T01:43:04;100662.25;;;26.60;30.30
77739;BME280;66904;59.926;30.404;2023-04-24T01:48:05;100657.03;;;26.58;30.20
77739;BME280;66904;59.926;30.404;2023-04-24T01:53:06;100661.03;;;26.56;30.70
77739;BME280;66904;59.926;30.404;2023-04-24T01:58:06;100659.16;;;26.56;30.42
77739;BME280;66904;59.926;30.404;2023-04-24T02:03:07;100644.78;;;26.49;30.52
77739;BME280;66904;59.926;30.404;2023-04-24T02:08:08;100651.84;;;26.57;30.53
77739;BME280;66904;59.926;30.404;2023-04-24T02:13:08;100645.19;;;26.53;30.33
77739;BME280;66904;59.926;30.404;2023-04-24T02:18:09;100645.59;;;26.56;30.37
77739;BME280;66904;59.926;30.404;2023-04-24T02:23:11;100644.75;;;26.56;30.48
77739;BME280;66904;59.926;30.404;2023-04-24T02:28:13;100645.59;;;26.56;30.29
77739;BME280;66904;59.926;30.404;2023-04-24T02:33:13;100642.28;;;26.54;30.49
77739;BME280;66904;59.926;30.404;2023-04-24T02:38:14;100634.94;;;26.55;30.46
77739;BME280;66904;59.926;30.404;2023-04-24T02:43:14;100641.44;;;26.54;30.50
77739;BME280;66904;59.926;30.404;2023-04-24T02:48:15;100633.88;;;26.56;30.35
77739;BME280;66904;59.926;30.404;2023-04-24T02:53:16;100615.19;;;26.48;29.96
77739;BME280;66904;59.926;30.404;2023-04-24T02:58:16;100630.59;;;26.54;30.31
77739;BME280;66904;59.926;30.404;2023-04-24T03:03:17;100642.88;;;26.56;30.67
77739;BME280;66904;59.926;30.404;2023-04-24T03:08:18;100631.19;;;26.56;30.18
77739;BME280;66904;59.926;30.404;2023-04-24T03:13:18;100625.59;;;26.51;30.09
77739;BME280;66904;59.926;30.404;2023-04-24T03:18:19;100637.66;;;26.55;30.01
77739;BME280;66904;59.926;30.404;2023-04-24T03:23:19;100637.44;;;26.56;30.08
77739;BME280;66904;59.926;30.404;2023-04-24T03:28:20;100626.00;;;26.54;30.40
77739;BME280;66904;59.926;30.404;2023-04-24T03:33:20;100622.25;;;26.49;30.73
77739;BME280;66904;59.926;30.404;2023-04-24T03:38:21;100631.41;;;26.54;30.32
77739;BME280;66904;59.926;30.404;2023-04-24T03:43:22;100627.63;;;26.55;30.69
77739;BME280;66904;59.926;30.404;2023-04-24T03:48:22;100626.78;;;26.55;30.30
77739;BME280;66904;59.926;30.404;2023-04-24T03:53:23;100633.28;;;26.54;30.49
77739;BME280;66904;59.926;30.404;2023-04-24T03:58:23;100620.16;;;26.51;30.26
77739;BME280;66904;59.926;30.404;2023-04-24T04:03:24;100620.16;;;26.51;30.32
77739;BME280;66904;59.926;30.404;2023-04-24T04:08:25;100624.91;;;26.55;30.52
77739;BME280;66904;59.926;30.404;2023-04-24T04:13:26;100625.75;;;26.56;30.84
77739;BME280;66904;59.926;30.404;2023-04-24T04:18:26;100620.13;;;26.57;31.00
77739;BME280;66904;59.926;30.404;2023-04-24T04:23:27;100630.53;;;26.60;31.38
77739;BME280;66904;59.926;30.404;2023-04-24T04:28:29;100624.41;;;26.65;31.62
77739;BME280;66904;59.926;30.404;2023-04-24T04:33:31;100617.13;;;26.65;31.51
77739;BME280;66904;59.926;30.404;2023-04-24T04:38:31;100621.44;;;26.73;31.34
77739;BME280;66904;59.926;30.404;2023-04-24T04:43:32;100613.47;;;26.78;31.67
77739;BME280;66904;59.926;30.404;2023-04-24T04:48:34;100612.38;;;26.86;32.09
77739;BME280;66904;59.926;30.404;2023-04-24T04:53:35;100608.63;;;26.87;31.76
77739;BME280;66904;59.926;30.404;2023-04-24T04:58:35;100613.59;;;26.90;31.67
77739;BME280;66904;59.926;30.404;2023-04-24T05:03:36;100611.94;;;26.89;31.45
77739;BME280;66904;59.926;30.404;2023-04-24T05:08:36;100613.44;;;26.85;31.24
77739;BME280;66904;59.926;30.404;2023-04-24T05:13:37;100607.41;;;26.83;31.48
77739;BME280;66904;59.926;30.404;2023-04-24T05:18:37;100600.72;;;26.79;31.09
77739;BME280;66904;59.926;30.404;2023-04-24T05:23:38;100604.72;;;26.76;31.13
77739;BME280;66904;59.926;30.404;2023-04-24T05:28:38;100600.97;;;26.77;31.11
77739;BME280;66904;59.926;30.404;2023-04-24T05:33:39;100591.13;;;26.76;31.43
77739;BME280;66904;59.926;30.404;2023-04-24T05:38:39;100595.97;;;26.74;30.92
77739;BME280;66904;59.926;30.404;2023-04-24T05:43:40;100587.16;;;26.79;31.37
77739;BME280;66904;59.926;30.404;2023-04-24T05:48:40;100564.91;;;26.70;30.67
77739;BME280;66904;59.926;30.404;2023-04-24T05:53:41;100587.34;;;26.84;30.83
77739;BME280;66904;59.926;30.404;2023-04-24T05:58:41;100585.47;;;26.84;30.53
77739;BME280;66904;59.926;30.404;2023-04-24T06:03:42;100582.53;;;26.86;30.35
77739;BME280;66904;59.926;30.404;2023-04-24T06:08:43;100577.09;;;26.86;30.21
77739;BME280;66904;59.926;30.404;2023-04-24T06:13:44;100567.06;;;26.86;30.44
77739;BME280;66904;59.926;30.404;2023-04-24T06:18:44;100560.84;;;26.79;30.28
77739;BME280;66904;59.926;30.404;2023-04-24T06:23:47;100574.16;;;26.87;30.58
77739;BME280;66904;59.926;30.404;2023-04-24T06:28:47;100564.94;;;26.88;29.87
77739;BME280;66904;59.926;30.404;2023-04-24T06:33:48;100567.44;;;26.90;30.52
77739;BME280;66904;59.926;30.404;2023-04-24T06:38:49;100553.50;;;26.86;30.29
77739;BME280;66904;59.926;30.404;2023-04-24T06:43:50;100552.44;;;26.87;30.19
77739;BME280;66904;59.926;30.404;2023-04-24T06:48:54;100534.09;;;26.83;30.63
77739;BME280;66904;59.926;30.404;2023-04-24T06:53:55;100544.84;;;26.96;30.11
77739;BME280;66904;59.926;30.404;2023-04-24T06:58:56;100549.22;;;26.97;30.39
77739;BME280;66904;59.926;30.404;2023-04-24T07:03:57;100534.81;;;26.96;30.24
77739;BME280;66904;59.926;30.404;2023-04-24T07:08:57;100544.31;;;27.05;30.02
77739;BME280;66904;59.926;30.404;2023-04-24T07:14:00;100528.25;;;27.04;30.07
77739;BME280;66904;59.926;30.404;2023-04-24T07:19:01;100541.31;;;27.13;30.15
77739;BME280;66904;59.926;30.404;2023-04-24T07:24:01;100542.13;;;27.14;30.26
77739;BME280;66904;59.926;30.404;2023-04-24T07:29:02;100541.44;;;27.18;30.39
77739;BME280;66904;59.926;30.404;2023-04-24T07:34:02;100528.78;;;27.12;30.23
77739;BME280;66904;59.926;30.404;2023-04-24T07:39:03;100532.63;;;27.23;30.41
77739;BME280;66904;59.926;30.404;2023-04-24T07:44:03;100538.44;;;27.27;30.12
77739;BME280;66904;59.926;30.404;2023-04-24T07:49:07;100538.81;;;27.30;30.73
77739;BME280;66904;59.926;30.404;2023-04-24T07:54:07;100540.84;;;27.35;30.57
77739;BME280;66904;59.926;30.404;2023-04-24T07:59:08;100529.50;;;27.38;31.11
77739;BME280;66904;59.926;30.404;2023-04-24T08:04:10;100517.91;;;27.31;30.80
77739;BME280;66904;59.926;30.404;2023-04-24T08:09:10;100542.25;;;27.44;30.74
77739;BME280;66904;59.926;30.404;2023-04-24T08:14:11;100526.94;;;27.43;30.72
77739;BME280;66904;59.926;30.404;2023-04-24T08:19:13;100506.97;;;27.37;31.42
77739;BME280;66904;59.926;30.404;2023-04-24T08:24:14;100510.47;;;27.38;31.10
77739;BME280;66904;59.926;30.404;2023-04-24T08:29:14;100520.31;;;27.39;31.43
77739;BME280;66904;59.926;30.404;2023-04-24T08:34:15;100526.56;;;27.39;30.99
77739;BME280;66904;59.926;30.404;2023-04-24T08:39:16;100529.06;;;27.41;31.04
77739;BME280;66904;59.926;30.404;2023-04-24T08:44:19;100520.31;;;27.39;30.98
77739;BME280;66904;59.926;30.404;2023-04-24T08:49:20;100529.06;;;27.41;31.13
77739;BME280;66904;59.926;30.404;2023-04-24T08:54:21;100520.09;;;27.40;31.24
77739;BME280;66904;59.926;30.404;2023-04-24T08:59:22;100521.13;;;27.39;30.78
77739;BME280;66904;59.926;30.404;2023-04-24T09:04:23;100508.84;;;27.37;31.17
77739;BME280;66904;59.926;30.404;2023-04-24T09:09:30;100526.78;;;27.38;30.72
77739;BME280;66904;59.926;30.404;2023-04-24T09:14:31;100511.78;;;27.35;30.47
77739;BME280;66904;59.926;30.404;2023-04-24T09:19:32;100504.47;;;27.36;30.44
77739;BME280;66904;59.926;30.404;2023-04-24T09:24:33;100520.19;;;27.34;30.16
77739;BME280;66904;59.926;30.404;2023-04-24T09:29:35;100511.31;;;27.38;30.57
77739;BME280;66904;59.926;30.404;2023-04-24T09:34:35;100501.06;;;27.40;29.81
77739;BME280;66904;59.926;30.404;2023-04-24T09:39:36;100485.69;;;27.34;30.05
77739;BME280;66904;59.926;30.404;2023-04-24T09:44:36;100483.47;;;27.43;30.14
77739;BME280;66904;59.926;30.404;2023-04-24T09:49:37;100489.81;;;27.37;29.67
77739;BME280;66904;59.926;30.404;2023-04-24T09:54:39;100491.63;;;27.43;29.97
77739;BME280;66904;59.926;30.404;2023-04-24T09:59:45;100505.84;;;27.45;30.10
77739;BME280;66904;59.926;30.404;2023-04-24T10:04:57;100501.00;;;27.47;29.29
77739;BME280;66904;59.926;30.404;2023-04-24T10:10:00;100508.56;;;27.45;30.17
77739;BME280;66904;59.926;30.404;2023-04-24T10:15:01;100503.94;;;27.45;30.34
77739;BME280;66904;59.926;30.404;2023-04-24T10:20:03;100482.50;;;27.37;30.10
77739;BME280;66904;59.926;30.404;2023-04-24T10:25:07;100511.06;;;27.46;29.63
77739;BME280;66904;59.926;30.404;2023-04-24T10:30:08;100504.19;;;27.44;29.95
77739;BME280;66904;59.926;30.404;2023-04-24T10:35:15;100506.03;;;27.43;29.28
77739;BME280;66904;59.926;30.404;2023-04-24T10:40:18;100506.91;;;27.44;29.50
77739;BME280;66904;59.926;30.404;2023-04-24T10:45:20;100506.91;;;27.44;29.51
77739;BME280;66904;59.926;30.404;2023-04-24T10:50:22;100500.81;;;27.42;29.58
77739;BME280;66904;59.926;30.404;2023-04-24T10:55:49;100516.03;;;27.49;29.24
77739;BME280;66904;59.926;30.404;2023-04-24T11:00:59;100527.34;;;27.46;29.67
77739;BME280;66904;59.926;30.404;2023-04-24T11:06:07;100511.06;;;27.46;29.49
77739;BME280;66904;59.926;30.404;2023-04-24T11:11:12;100521.09;;;27.46;29.40
77739;BME280;66904;59.926;30.404;2023-04-24T11:21:49;100527.13;;;27.48;29.52
77739;BME280;66904;59.926;30.404;2023-04-24T11:42:37;100541.59;;;27.42;28.77
77739;BME280;66904;59.926;30.404;2023-04-24T11:47:38;100544.31;;;27.42;29.14
77739;BME280;66904;59.926;30.404;2023-04-24T11:52:41;100546.19;;;27.41;28.68
77739;BME280;66904;59.926;30.404;2023-04-24T11:57:46;100553.28;;;27.42;28.92
77739;BME280;66904;59.926;30.404;2023-04-24T12:02:48;100568.75;;;27.42;29.01
77739;BME280;66904;59.926;30.404;2023-04-24T12:07:48;100575.69;;;27.38;29.10
77739;BME280;66904;59.926;30.404;2023-04-24T12:12:50;100580.78;;;27.34;29.19
77739;BME280;66904;59.926;30.404;2023-04-24T12:17:53;100587.66;;;27.37;28.86
77739;BME280;66904;59.926;30.404;2023-04-24T12:22:59;100590.81;;;27.34;28.71
77739;BME280;66904;59.926;30.404;2023-04-24T12:33:06;100596.00;;;27.35;29.63
77739;BME280;66904;59.926;30.404;2023-04-24T12:38:12;100586.06;;;27.29;29.62
77739;BME280;66904;59.926;30.404;2023-04-24T12:43:18;100609.38;;;27.37;29.65
77739;BME280;66904;59.926;30.404;2023-04-24T12:48:19;100605.44;;;27.33;29.49
77739;BME280;66904;59.926;30.404;2023-04-24T12:53:20;100615.28;;;27.34;29.53
77739;BME280;66904;59.926;30.404;2023-04-24T12:58:21;100616.53;;;27.31;29.84
77739;BME280;66904;59.926;30.404;2023-04-24T13:03:21;100612.63;;;27.27;29.59
77739;BME280;66904;59.926;30.404;2023-04-24T13:08:22;100626.59;;;27.31;29.43
77739;BME280;66904;59.926;30.404;2023-04-24T13:13:23;100628.22;;;27.32;29.70
77739;BME280;66904;59.926;30.404;2023-04-24T13:18:24;100623.94;;;27.24;29.35
77739;BME280;66904;59.926;30.404;2023-04-24T13:23:24;100643.09;;;27.29;29.91
77739;BME280;66904;59.926;30.404;2023-04-24T13:28:25;100634.13;;;27.29;30.13
77739;BME280;66904;59.926;30.404;2023-04-24T13:33:26;100644.97;;;27.29;30.36
77739;BME280;66904;59.926;30.404;2023-04-24T13:38:26;100654.56;;;27.31;30.06
77739;BME280;66904;59.926;30.404;2023-04-24T13:43:27;100655.41;;;27.32;30.62
77739;BME280;66904;59.926;30.404;2023-04-24T13:48:27;100659.78;;;27.33;31.56
77739;BME280;66904;59.926;30.404;2023-04-24T13:53:28;100671.03;;;27.36;32.04
77739;BME280;66904;59.926;30.404;2023-04-24T13:58:28;100673.09;;;27.41;31.94
77739;BME280;66904;59.926;30.404;2023-04-24T14:03:29;100679.28;;;27.48;32.04
77739;BME280;66904;59.926;30.404;2023-04-24T14:08:30;100688.47;;;27.53;31.26
77739;BME280;66904;59.926;30.404;2023-04-24T14:13:30;100692.81;;;27.54;31.42
77739;BME280;66904;59.926;30.404;2023-04-24T14:18:31;100695.72;;;27.59;31.07
77739;BME280;66904;59.926;30.404;2023-04-24T14:23:31;100690.88;;;27.61;31.28
77739;BME280;66904;59.926;30.404;2023-04-24T14:28:32;100680.22;;;27.60;31.01
77739;BME280;66904;59.926;30.404;2023-04-24T14:33:33;100668.59;;;27.53;31.13
77739;BME280;66904;59.926;30.404;2023-04-24T14:38:33;100701.81;;;27.55;30.96
77739;BME280;66904;59.926;30.404;2023-04-24T14:43:35;100686.44;;;27.42;30.57
77739;BME280;66904;59.926;30.404;2023-04-24T14:48:36;100722.56;;;27.49;30.54
77739;BME280;66904;59.926;30.404;2023-04-24T14:53:36;100727.88;;;27.44;30.55
77739;BME280;66904;59.926;30.404;2023-04-24T14:58:37;100741.63;;;27.43;30.79
77739;BME280;66904;59.926;30.404;2023-04-24T15:03:37;100735.59;;;27.41;30.87
77739;BME280;66904;59.926;30.404;2023-04-24T15:08:38;100728.50;;;27.40;31.02
77739;BME280;66904;59.926;30.404;2023-04-24T15:13:38;100717.00;;;27.38;30.94
77739;BME280;66904;59.926;30.404;2023-04-24T15:18:39;100726.44;;;27.35;31.35
77739;BME280;66904;59.926;30.404;2023-04-24T15:23:40;100698.22;;;27.36;31.03
77739;BME280;66904;59.926;30.404;2023-04-24T15:28:40;100705.31;;;27.37;31.03
77739;BME280;66904;59.926;30.404;2023-04-24T15:33:41;100674.34;;;27.38;31.74
77739;BME280;66904;59.926;30.404;2023-04-24T15:38:43;100685.47;;;27.37;31.99
77739;BME280;66904;59.926;30.404;2023-04-24T15:43:43;100683.19;;;27.34;32.26
77739;BME280;66904;59.926;30.404;2023-04-24T15:48:44;100682.34;;;27.33;32.12
77739;BME280;66904;59.926;30.404;2023-04-24T15:53:44;100676.91;;;27.33;33.15
77739;BME280;66904;59.926;30.404;2023-04-24T15:58:46;100678.59;;;27.34;32.84
77739;BME280;66904;59.926;30.404;2023-04-24T16:03:48;100686.50;;;27.36;33.29
77739;BME280;66904;59.926;30.404;2023-04-24T16:08:48;100686.50;;;27.36;33.28
77739;BME280;66904;59.926;30.404;2023-04-24T16:13:49;100699.72;;;27.32;33.54
77739;BME280;66904;59.926;30.404;2023-04-24T16:18:50;100701.81;;;27.30;33.60
77739;BME280;66904;59.926;30.404;2023-04-24T16:23:53;100707.09;;;27.25;33.40
77739;BME280;66904;59.926;30.404;2023-04-24T16:28:53;100707.53;;;27.22;33.39
77739;BME280;66904;59.926;30.404;2023-04-24T16:33:55;100706.94;;;27.20;33.39
77739;BME280;66904;59.926;30.404;2023-04-24T16:38:55;100705.50;;;27.17;33.37
77739;BME280;66904;59.926;30.404;2023-04-24T16:43:56;100708.81;;;27.19;33.76
77739;BME280;66904;59.926;30.404;2023-04-24T16:48:57;100693.41;;;27.13;34.25
77739;BME280;66904;59.926;30.404;2023-04-24T16:53:57;100718.56;;;27.27;34.83
77739;BME280;66904;59.926;30.404;2023-04-24T16:58:58;100723.78;;;27.29;35.76
77739;BME280;66904;59.926;30.404;2023-04-24T17:03:58;100731.47;;;27.32;35.58
77739;BME280;66904;59.926;30.404;2023-04-24T17:08:59;100727.25;;;27.36;36.68
77739;BME280;66904;59.926;30.404;2023-04-24T17:14:00;100724.72;;;27.41;36.23
77739;BME280;66904;59.926;30.404;2023-04-24T17:19:00;100721.13;;;27.47;35.96
77739;BME280;66904;59.926;30.404;2023-04-24T17:24:01;100741.38;;;27.51;35.82
77739;BME280;66904;59.926;30.404;2023-04-24T17:29:02;100749.53;;;27.51;35.62
77739;BME280;66904;59.926;30.404;2023-04-24T17:34:02;100743.28;;;27.50;36.25
77739;BME280;66904;59.926;30.404;2023-04-24T17:39:03;100754.72;;;27.52;36.38
77739;BME280;66904;59.926;30.404;2023-04-24T17:44:03;100754.53;;;27.54;36.39
77739;BME280;66904;59.926;30.404;2023-04-24T17:49:04;100767.22;;;27.60;35.83
77739;BME280;66904;59.926;30.404;2023-04-24T17:54:04;100766.75;;;27.63;36.27
77739;BME280;66904;59.926;30.404;2023-04-24T17:59:05;100758.22;;;27.59;35.64
77739;BME280;66904;59.926;30.404;2023-04-24T18:04:06;100761.78;;;27.60;35.84
77739;BME280;66904;59.926;30.404;2023-04-24T18:09:06;100760.03;;;27.65;36.11
77739;BME280;66904;59.926;30.404;2023-04-24T18:14:07;100767.16;;;27.66;36.22
77739;BME280;66904;59.926;30.404;2023-04-24T18:19:08;100759.00;;;27.66;35.75
77739;BME280;66904;59.926;30.404;2023-04-24T18:24:09;100746.31;;;27.60;35.50
77739;BME280;66904;59.926;30.404;2023-04-24T18:29:10;100754.28;;;27.55;35.28
77739;BME280;66904;59.926;30.404;2023-04-24T18:34:10;100756.94;;;27.37;35.00
77739;BME280;66904;59.926;30.404;2023-04-24T18:39:11;100767.56;;;27.39;34.92
77739;BME280;66904;59.926;30.404;2023-04-24T18:44:13;100758.66;;;27.32;34.75
77739;BME280;66904;59.926;30.404;2023-04-24T18:49:14;100753.25;;;27.25;34.74
77739;BME280;66904;59.926;30.404;2023-04-24T18:54:15;100761.03;;;27.21;34.55
77739;BME280;66904;59.926;30.404;2023-04-24T18:59:16;100756.31;;;27.10;34.38
77739;BME280;66904;59.926;30.404;2023-04-24T19:04:16;100768.41;;;27.14;34.96
77739;BME280;66904;59.926;30.404;2023-04-24T19:09:19;100764.63;;;27.15;34.57
77739;BME280;66904;59.926;30.404;2023-04-24T19:14:20;100761.06;;;27.15;34.83
77739;BME280;66904;59.926;30.404;2023-04-24T19:19:22;100769.84;;;27.17;34.32
77739;BME280;66904;59.926;30.404;2023-04-24T19:24:23;100765.84;;;27.19;34.30
77739;BME280;66904;59.926;30.404;2023-04-24T19:29:24;100771.50;;;27.18;34.40
77739;BME280;66904;59.926;30.404;2023-04-24T19:34:25;100767.19;;;27.10;34.86
77739;BME280;66904;59.926;30.404;2023-04-24T19:39:26;100771.75;;;27.16;34.52
77739;BME280;66904;59.926;30.404;2023-04-24T19:44:27;100779.88;;;27.16;34.73
77739;BME280;66904;59.926;30.404;2023-04-24T19:49:27;100769.66;;;27.12;35.10
77739;BME280;66904;59.926;30.404;2023-04-24T19:54:28;100776.13;;;27.17;34.95
77739;BME280;66904;59.926;30.404;2023-04-24T19:59:28;100769.03;;;27.16;35.37
77739;BME280;66904;59.926;30.404;2023-04-24T20:04:29;100776.34;;;27.16;34.96
77739;BME280;66904;59.926;30.404;2023-04-24T20:09:30;100783.88;;;27.14;34.80
77739;BME280;66904;59.926;30.404;2023-04-24T20:14:30;100785.13;;;27.11;35.19
77739;BME280;66904;59.926;30.404;2023-04-24T20:19:31;100793.28;;;27.11;35.36
77739;BME280;66904;59.926;30.404;2023-04-24T20:24:32;100795.19;;;27.11;35.05
77739;BME280;66904;59.926;30.404;2023-04-24T20:29:32;100800.19;;;27.14;35.70
77739;BME280;66904;59.926;30.404;2023-04-24T20:34:34;100808.72;;;27.17;35.70
77739;BME280;66904;59.926;30.404;2023-04-24T20:39:34;100811.44;;;27.17;35.56
77739;BME280;66904;59.926;30.404;2023-04-24T20:44:36;100823.09;;;27.18;35.39
77739;BME280;66904;59.926;30.404;2023-04-24T20:49:37;100823.94;;;27.18;35.24
77739;BME280;66904;59.926;30.404;2023-04-24T20:54:37;100817.69;;;27.18;35.53
77739;BME280;66904;59.926;30.404;2023-04-24T20:59:38;100817.06;;;27.16;35.51
77739;BME280;66904;59.926;30.404;2023-04-24T21:04:38;100821.47;;;27.17;35.24
77739;BME280;66904;59.926;30.404;2023-04-24T21:09:39;100820.63;;;27.16;35.61
77739;BME280;66904;59.926;30.404;2023-04-24T21:14:39;100821.69;;;27.15;35.48
77739;BME280;66904;59.926;30.404;2023-04-24T21:19:40;100826.28;;;27.15;35.13
77739;BME280;66904;59.926;30.404;2023-04-24T21:24:41;100819.41;;;27.12;35.41
77739;BME280;66904;59.926;30.404;2023-04-24T21:29:41;100820.88;;;27.08;34.99
77739;BME280;66904;59.926;30.404;2023-04-24T21:34:42;100818.78;;;27.10;34.90
77739;BME280;66904;59.926;30.404;2023-04-24T21:39:42;100811.09;;;27.07;35.20
77739;BME280;66904;59.926;30.404;2023-04-24T21:44:43;100811.91;;;27.08;34.90
77739;BME280;66904;59.926;30.404;2023-04-24T21:49:43;100803.16;;;27.06;35.34
77739;BME280;66904;59.926;30.404;2023-04-24T21:54:44;100807.53;;;27.07;35.21
77739;BME280;66904;59.926;30.404;2023-04-24T21:59:44;100805.88;;;27.06;34.80
77739;BME280;66904;59.926;30.404;2023-04-24T22:04:45;100789.81;;;27.04;35.18
77739;BME280;66904;59.926;30.404;2023-04-24T22:09:45;100805.66;;;27.07;34.78
77739;BME280;66904;59.926;30.404;2023-04-24T22:14:49;100797.50;;;27.07;35.01
77739;BME280;66904;59.926;30.404;2023-04-24T22:19:50;100800.81;;;27.09;34.84
77739;BME280;66904;59.926;30.404;2023-04-24T22:24:50;100788.09;;;27.10;34.82
77739;BME280;66904;59.926;30.404;2023-04-24T22:29:51;100787.84;;;27.11;34.52
77739;BME280;66904;59.926;30.404;2023-04-24T22:34:52;100781.38;;;27.12;35.22
77739;BME280;66904;59.926;30.404;2023-04-24T22:39:53;100774.91;;;27.13;35.11
77739;BME280;66904;59.926;30.404;2023-04-24T22:44:53;100771.53;;;27.11;35.04
77739;BME280;66904;59.926;30.404;2023-04-24T22:49:54;100758.59;;;27.13;35.01
77739;BME280;66904;59.926;30.404;2023-04-24T22:54:56;100763.78;;;27.15;34.67
77739;BME280;66904;59.926;30.404;2023-04-24T22:59:57;100754.22;;;27.12;34.76
77739;BME280;66904;59.926;30.404;2023-04-24T23:04:58;100758.34;;;27.15;34.72
77739;BME280;66904;59.926;30.404;2023-04-24T23:09:58;100758.34;;;27.15;34.64
77739;BME280;66904;59.926;30.404;2023-04-24T23:14:59;100748.34;;;27.15;35.09
77739;BME280;66904;59.926;30.404;2023-04-24T23:19:59;100749.16;;;27.16;35.15
77739;BME280;66904;59.926;30.404;2023-04-24T23:25:00;100752.94;;;27.15;35.17
77739;BME280;66904;59.926;30.404;2023-04-24T23:30:02;100751.03;;;27.15;34.91
77739;BME280;66904;59.926;30.404;2023-04-24T23:35:03;100742.91;;;27.15;34.60
77739;BME280;66904;59.926;30.404;2023-04-24T23:40:07;100730.59;;;27.13;34.96
77739;BME280;66904;59.926;30.404;2023-04-24T23:45:10;100729.31;;;27.15;34.72
77739;BME280;66904;59.926;30.404;2023-04-24T23:50:11;100725.75;;;27.15;34.89
77739;BME280;66904;59.926;30.404;2023-04-24T23:55:11;100726.59;;;27.15;35.04
